createdAt,value
2022-08-16T12:37:01.733Z,6.20
2022-08-16T12:39:29.365Z,4.10
2022-08-16T12:41:57.620Z,5.53
2022-08-16T12:44:27.106Z,3.22
2022-08-16T12:47:17.193Z,3.20
2022-08-16T12:49:44.384Z,3.42
2022-08-16T12:52:33.049Z,3.10
2022-08-16T12:55:00.790Z,3.05
2022-08-16T12:57:36.106Z,3.20
2022-08-16T13:00:07.756Z,3.00
2022-08-16T13:02:36.603Z,3.15
2022-08-16T13:05:07.065Z,3.10
2022-08-16T13:07:37.603Z,2.90
2022-08-16T13:10:21.121Z,2.70
2022-08-16T13:13:02.140Z,2.78
2022-08-16T13:15:31.105Z,3.20
2022-08-16T13:18:24.207Z,3.17
2022-08-16T13:20:54.329Z,3.40
2022-08-16T13:23:23.819Z,3.50
2022-08-16T13:25:51.775Z,3.50
2022-08-16T13:28:22.588Z,3.05
2022-08-16T13:30:53.451Z,3.75
2022-08-16T13:33:29.805Z,3.70
2022-08-16T13:35:59.257Z,3.15
2022-08-16T13:38:31.155Z,3.30
2022-08-16T13:41:00.639Z,2.92
2022-08-16T13:43:32.523Z,3.07
2022-08-16T13:46:04.769Z,3.38
2022-08-16T13:48:42.673Z,3.78
2022-08-16T13:51:17.980Z,3.47
2022-08-16T13:53:49.706Z,3.78
2022-08-16T13:56:25.283Z,3.60
2022-08-16T13:58:54.116Z,3.72
2022-08-16T14:01:22.583Z,3.80
2022-08-16T14:03:54.503Z,3.60
2022-08-16T14:06:22.817Z,3.90
2022-08-16T14:08:59.208Z,3.10
2022-08-16T14:11:34.852Z,3.47
2022-08-16T14:14:05.724Z,3.83
2022-08-16T14:16:35.113Z,3.50
2022-08-16T14:19:03.733Z,3.45
2022-08-16T14:21:34.901Z,3.28
2022-08-16T14:24:16.749Z,3.33
2022-08-16T14:26:53.196Z,3.28
2022-08-16T14:29:21.030Z,3.30
2022-08-16T14:31:49.601Z,3.20
2022-08-16T14:34:21.761Z,3.25
2022-08-16T14:36:53.280Z,3.40
2022-08-16T14:39:22.120Z,3.65
2022-08-16T14:41:53.497Z,3.70
2022-08-16T14:44:23.498Z,3.05
2022-08-16T14:46:50.705Z,3.17
2022-08-16T14:49:20.106Z,3.28
2022-08-16T14:51:48.826Z,3.28
2022-08-16T14:54:16.098Z,3.30
2022-08-16T14:56:46.842Z,3.92
2022-08-16T14:59:23.216Z,3.45
2022-08-16T15:01:59.513Z,3.45
2022-08-16T15:04:37.903Z,3.40
2022-08-16T15:07:10.836Z,3.85
2022-08-16T15:09:44.382Z,3.30
2022-08-16T15:12:33.581Z,3.17
2022-08-16T15:15:04.664Z,3.20
2022-08-16T15:20:10.072Z,3.20
2022-08-16T15:22:40.888Z,3.33
2022-08-16T15:25:13.844Z,3.53
2022-08-16T15:27:44.514Z,3.30
2022-08-16T15:33:07.884Z,3.10
2022-08-16T15:35:38.670Z,3.20
2022-08-16T15:38:09.105Z,2.78
2022-08-16T15:40:52.019Z,3.13
2022-08-16T15:43:27.166Z,3.28
2022-08-16T15:46:34.951Z,3.17
2022-08-16T15:49:10.135Z,3.42
2022-08-16T15:51:41.228Z,3.40
2022-08-16T15:54:21.192Z,2.92
2022-08-16T15:57:04.266Z,3.03
2022-08-16T15:59:48.619Z,3.38
2022-08-16T16:02:27.417Z,2.70
2022-08-16T16:04:57.330Z,3.50
2022-08-16T16:07:28.089Z,3.28
2022-08-16T16:09:59.237Z,3.85
2022-08-16T16:15:16.678Z,3.05
2022-08-16T16:17:44.048Z,2.80
2022-08-16T16:20:19.328Z,2.80
2022-08-16T16:22:49.950Z,3.03
2022-08-16T16:25:18.787Z,3.00
2022-08-16T16:30:33.283Z,2.95
2022-08-16T16:33:21.004Z,2.43
2022-08-16T16:35:55.274Z,2.90
2022-08-16T16:38:26.421Z,2.72
2022-08-16T16:40:54.624Z,3.80
2022-08-16T16:43:25.490Z,3.00
2022-08-16T16:45:53.406Z,2.78
2022-08-16T16:48:21.744Z,2.70
2022-08-16T16:50:58.098Z,3.13
2022-08-16T16:53:31.680Z,3.42
2022-08-16T16:55:59.207Z,2.38
2022-08-16T16:58:54.121Z,3.17
2022-08-16T17:01:34.895Z,2.80
2022-08-16T17:04:19.653Z,2.85
2022-08-16T17:06:57.419Z,2.70
2022-08-16T17:09:24.821Z,3.00
2022-08-16T17:11:55.076Z,3.03
2022-08-16T17:14:32.885Z,2.80
2022-08-16T17:17:02.459Z,3.38
2022-08-16T17:19:31.860Z,2.85
2022-08-16T17:21:59.835Z,2.72
2022-08-16T17:24:39.584Z,2.67
2022-08-16T17:27:08.177Z,3.35
2022-08-16T17:29:42.668Z,3.35
2022-08-16T17:32:47.544Z,3.15
2022-08-16T17:35:08.574Z,3.25
2022-08-16T17:37:48.706Z,3.08
2022-08-16T17:40:25.658Z,3.25
2022-08-16T17:43:10.170Z,3.40
2022-08-16T17:45:39.248Z,3.47
2022-08-16T17:48:07.407Z,3.50
2022-08-16T17:50:34.768Z,3.10
2022-08-16T17:53:04.890Z,3.00
2022-08-16T17:55:35.396Z,3.00
2022-08-16T17:58:19.805Z,3.50
2022-08-16T18:00:55.839Z,3.55
2022-08-16T18:04:02.722Z,2.67
2022-08-16T18:06:18.595Z,3.78
2022-08-16T18:08:51.218Z,3.30
2022-08-16T18:11:25.635Z,3.47
2022-08-16T18:13:53.982Z,3.30
2022-08-16T18:16:21.313Z,3.80
2022-08-16T18:18:51.573Z,3.33
2022-08-16T18:21:51.022Z,3.22
2022-08-16T18:24:18.927Z,3.40
2022-08-16T18:26:46.489Z,4.30
2022-08-16T18:29:14.838Z,4.00
2022-08-16T18:31:42.182Z,4.35
2022-08-16T18:34:09.376Z,3.88
2022-08-16T18:36:37.206Z,4.18
2022-08-16T18:39:04.816Z,3.78
2022-08-16T18:41:36.768Z,4.22
2022-08-16T18:44:26.909Z,4.40
2022-08-16T18:46:53.573Z,4.25
2022-08-16T18:49:20.871Z,3.88
2022-08-16T18:51:48.078Z,3.95
2022-08-16T18:54:18.230Z,4.40
2022-08-16T18:56:56.273Z,4.30
2022-08-16T18:59:29.280Z,4.40
2022-08-16T19:02:00.481Z,4.32
2022-08-16T19:04:47.876Z,4.35
2022-08-16T19:07:23.392Z,4.30
2022-08-16T19:09:59.650Z,4.55
2022-08-16T19:12:38.642Z,4.22
2022-08-16T19:15:16.253Z,4.63
2022-08-16T19:17:44.780Z,4.40
2022-08-16T19:20:14.510Z,4.70
2022-08-16T19:25:46.632Z,4.93
2022-08-16T19:28:46.569Z,4.32
2022-08-16T19:31:12.108Z,4.10
2022-08-16T19:33:40.360Z,4.28
2022-08-16T19:36:08.147Z,4.85
2022-08-16T19:38:44.271Z,4.30
2022-08-16T19:41:11.663Z,4.30
2022-08-16T19:43:38.935Z,5.00
2022-08-16T19:46:06.547Z,5.05
2022-08-16T19:48:34.033Z,5.43
2022-08-16T19:51:01.375Z,4.90
2022-08-16T19:53:28.671Z,4.68
2022-08-16T19:55:55.957Z,4.85
2022-08-16T19:58:25.789Z,4.68
2022-08-16T20:00:56.428Z,4.78
2022-08-16T20:03:24.572Z,4.45
2022-08-16T20:05:52.178Z,5.13
2022-08-16T20:08:19.704Z,4.90
2022-08-16T20:10:48.049Z,4.88
2022-08-16T20:13:20.993Z,5.53
2022-08-16T20:15:49.325Z,4.90
2022-08-16T20:18:24.465Z,4.97
2022-08-16T20:20:52.675Z,4.57
2022-08-16T20:23:24.454Z,4.95
2022-08-16T20:25:58.088Z,5.13
2022-08-16T20:28:39.409Z,5.03
2022-08-16T20:31:13.069Z,5.03
2022-08-16T20:33:40.448Z,5.15
2022-08-16T20:36:07.962Z,6.07
2022-08-16T20:38:35.386Z,5.55
2022-08-16T20:41:02.812Z,6.47
2022-08-16T20:43:30.033Z,5.68
2022-08-16T20:45:57.263Z,5.75
2022-08-16T20:48:27.501Z,5.78
2022-08-16T20:50:55.609Z,5.32
2022-08-16T20:53:23.282Z,5.60
2022-08-16T20:55:50.690Z,4.75
2022-08-16T20:58:18.046Z,5.20
2022-08-16T21:00:45.407Z,5.03
2022-08-16T21:03:13.620Z,5.55
2022-08-16T21:05:40.879Z,5.53
2022-08-16T21:08:52.468Z,6.03
2022-08-16T21:10:56.680Z,5.70
2022-08-16T21:13:25.618Z,5.82
2022-08-16T21:18:20.031Z,5.72
2022-08-16T21:20:47.333Z,6.07
2022-08-16T21:23:14.577Z,5.95
2022-08-16T21:25:58.211Z,6.10
2022-08-16T21:28:39.417Z,6.70
2022-08-16T21:31:14.829Z,5.68
2022-08-16T21:33:43.113Z,5.90
2022-08-16T21:36:11.374Z,5.80
2022-08-16T21:38:39.551Z,5.80
2022-08-16T21:41:08.340Z,6.20
2022-08-16T21:43:35.548Z,5.38
2022-08-16T21:46:04.293Z,6.38
2022-08-16T21:48:34.983Z,6.32
2022-08-16T21:51:12.324Z,6.47
2022-08-16T21:53:40.176Z,6.75
2022-08-16T21:56:09.850Z,6.65
2022-08-16T21:58:52.425Z,6.97
2022-08-16T22:01:23.019Z,6.75
2022-08-16T22:04:35.602Z,6.60
2022-08-16T22:06:38.731Z,6.43
2022-08-16T22:09:07.017Z,6.57
2022-08-16T22:11:34.223Z,6.65
2022-08-16T22:14:01.594Z,6.88
2022-08-16T22:16:32.032Z,6.70
2022-08-16T22:19:00.189Z,5.75
2022-08-16T22:21:27.675Z,6.77
2022-08-16T22:23:57.379Z,6.30
2022-08-16T22:26:30.862Z,6.13
2022-08-16T22:29:01.001Z,7.07
2022-08-16T22:31:28.262Z,7.22
2022-08-16T22:33:56.729Z,5.93
2022-08-16T22:36:27.949Z,6.95
2022-08-16T22:38:58.134Z,6.65
2022-08-16T22:41:26.970Z,6.35
2022-08-16T22:43:54.289Z,6.35
2022-08-16T22:46:21.496Z,6.40
2022-08-16T22:48:51.616Z,6.13
2022-08-16T22:51:20.354Z,6.85
2022-08-16T22:53:47.959Z,6.80
2022-08-16T22:56:17.950Z,6.63
2022-08-16T22:58:45.938Z,6.45
2022-08-16T23:01:14.754Z,6.28
2022-08-16T23:03:42.490Z,5.95
2022-08-16T23:06:10.491Z,6.53
2022-08-16T23:08:40.779Z,6.20
2022-08-16T23:11:12.054Z,6.20
2022-08-16T23:13:50.045Z,6.47
2022-08-16T23:16:22.921Z,6.20
2022-08-16T23:18:53.283Z,6.45
2022-08-16T23:21:20.681Z,6.22
2022-08-16T23:23:49.034Z,6.70
2022-08-16T23:26:36.326Z,6.82
2022-08-16T23:29:05.518Z,6.72
2022-08-16T23:31:41.000Z,6.93
2022-08-16T23:34:08.210Z,6.10
2022-08-16T23:36:35.428Z,6.68
2022-08-16T23:39:02.616Z,6.60
2022-08-16T23:41:33.887Z,6.65
2022-08-16T23:44:01.977Z,6.68
2022-08-16T23:46:49.692Z,7.27
2022-08-16T23:49:56.772Z,7.10
2022-08-16T23:52:08.809Z,6.40
2022-08-16T23:54:36.527Z,6.75
2022-08-16T23:57:04.211Z,6.53
2022-08-16T23:59:43.725Z,6.70
